Terminal Aerodrome Forecast
Issued by NWS

Home | Current Version | Previous Version | Text Only | Print | Product List | Glossary On
Versions: 1 2 3 4 5 6 7 8 9 10 11 12 13
000
FTUS45 KRIW 231700
TAFCOD
TAF
KCOD 231720Z 2318/2418 27011G20KT P6SM BKN060
     FM232100 26020G40KT P6SM SCT060
     FM241000 21011KT P6SM BKN150
     FM241600 21015KT P6SM BKN120
      AMD LTD TO CLD VIS AND WIND=

USA.gov is the U.S. government's official web portal to all federal, state and local government web resources and services.